createdAt,value
2018-05-15T00:01:10.912Z,16.13
2018-05-15T00:03:38.342Z,15.90
2018-05-15T00:06:05.811Z,15.90
2018-05-15T00:08:33.259Z,17.73
2018-05-15T00:11:00.726Z,18.63
2018-05-15T00:13:28.179Z,17.63
2018-05-15T00:15:55.719Z,16.87
2018-05-15T00:18:23.096Z,18.77
2018-05-15T00:20:50.559Z,16.77
2018-05-15T00:23:18.017Z,17.70
2018-05-15T00:25:45.487Z,19.17
2018-05-15T00:28:12.946Z,15.83
2018-05-15T00:30:40.409Z,18.80
2018-05-15T00:33:07.859Z,15.70
2018-05-15T00:35:35.315Z,20.10
2018-05-15T00:38:02.784Z,17.50
2018-05-15T00:40:30.237Z,18.23
2018-05-15T00:42:57.708Z,18.03
2018-05-15T00:45:25.168Z,18.67
2018-05-15T00:47:52.631Z,20.07
2018-05-15T00:50:20.100Z,20.30
2018-05-15T00:52:47.571Z,19.93
2018-05-15T00:55:26.888Z,18.47
2018-05-15T00:57:54.441Z,19.40
2018-05-15T01:00:21.887Z,20.37
2018-05-15T01:02:49.369Z,18.20
2018-05-15T01:05:16.822Z,19.33
2018-05-15T01:07:44.299Z,19.13
2018-05-15T01:10:11.756Z,17.43
2018-05-15T01:12:39.217Z,16.80
2018-05-15T01:15:06.677Z,20.03
2018-05-15T01:17:34.150Z,17.90
2018-05-15T01:20:01.612Z,18.53
2018-05-15T01:22:29.074Z,18.40
2018-05-15T01:24:56.518Z,19.27
2018-05-15T01:27:23.991Z,20.20
2018-05-15T01:29:51.442Z,19.00
2018-05-15T01:32:18.896Z,18.43
2018-05-15T01:34:47.124Z,17.93
2018-05-15T01:37:14.604Z,16.87
2018-05-15T01:39:42.044Z,17.50
2018-05-15T01:42:09.516Z,19.83
2018-05-15T01:44:36.972Z,19.37
2018-05-15T01:47:04.428Z,19.80
2018-05-15T01:49:31.890Z,18.10
2018-05-15T01:51:59.342Z,17.47
2018-05-15T01:54:26.816Z,18.20
2018-05-15T01:56:54.281Z,18.20
2018-05-15T01:59:21.736Z,18.80
2018-05-15T02:01:49.231Z,18.17
2018-05-15T02:04:16.688Z,20.90
2018-05-15T02:06:44.145Z,19.93
2018-05-15T02:09:11.617Z,19.00
2018-05-15T02:11:39.077Z,19.20
2018-05-15T02:14:06.535Z,19.80
2018-05-15T02:16:33.997Z,19.67
2018-05-15T02:19:01.454Z,20.37
2018-05-15T02:21:28.912Z,20.43
2018-05-15T02:23:56.386Z,19.73
2018-05-15T02:26:23.883Z,20.47
2018-05-15T02:28:51.305Z,19.30
2018-05-15T02:31:18.770Z,19.45
2018-05-15T02:33:46.227Z,19.33
2018-05-15T02:36:13.681Z,19.27
2018-05-15T02:38:41.142Z,18.03
2018-05-15T02:41:08.588Z,18.47
2018-05-15T02:43:36.059Z,17.92
2018-05-15T02:46:03.484Z,18.40
2018-05-15T02:48:31.702Z,18.40
2018-05-15T02:50:59.169Z,18.93
2018-05-15T02:53:26.634Z,20.80
2018-05-15T02:55:54.097Z,18.17
2018-05-15T02:58:21.547Z,17.87
2018-05-15T03:00:48.998Z,18.10
2018-05-15T03:03:16.467Z,18.43
2018-05-15T03:05:43.916Z,17.47
2018-05-15T03:08:11.372Z,19.07
2018-05-15T03:10:38.821Z,17.60
2018-05-15T03:13:07.065Z,19.30
2018-05-15T03:15:34.512Z,19.03
2018-05-15T03:18:01.974Z,18.87
2018-05-15T03:20:29.441Z,20.00
2018-05-15T03:22:56.898Z,18.97
2018-05-15T03:25:24.341Z,19.83
2018-05-15T03:27:51.805Z,19.63
2018-05-15T03:30:19.264Z,19.30
2018-05-15T03:32:46.734Z,20.33
2018-05-15T03:35:14.196Z,20.07
2018-05-15T03:37:41.656Z,22.70
2018-05-15T03:40:09.118Z,20.30
2018-05-15T03:42:36.557Z,20.03
2018-05-15T03:45:04.023Z,23.20
2018-05-15T03:47:31.485Z,20.40
2018-05-15T03:49:58.949Z,22.50
2018-05-15T03:52:26.409Z,22.90
2018-05-15T03:54:53.861Z,23.40
2018-05-15T03:57:22.088Z,26.63
2018-05-15T03:59:50.307Z,27.17
2018-05-15T04:02:30.316Z,25.07
2018-05-15T04:05:10.460Z,25.90
2018-05-15T04:07:48.782Z,26.53
2018-05-15T04:10:17.019Z,30.83
2018-05-15T04:12:45.300Z,32.87
2018-05-15T04:15:12.781Z,28.25
2018-05-15T04:17:40.228Z,31.83
2018-05-15T04:20:07.687Z,37.87
2018-05-15T04:22:35.147Z,32.17
2018-05-15T04:25:02.604Z,32.57
2018-05-15T04:27:30.821Z,74.00
2018-05-15T04:29:58.288Z,43.23
2018-05-15T04:32:25.780Z,43.83
2018-05-15T04:34:53.277Z,55.67
2018-05-15T04:37:21.476Z,43.77
2018-05-15T04:39:48.944Z,99.03
2018-05-15T04:42:16.402Z,61.87
2018-05-15T04:44:43.843Z,61.13
2018-05-15T04:47:12.057Z,43.33
2018-05-15T04:49:39.564Z,48.20
2018-05-15T04:52:07.050Z,39.57
2018-05-15T04:54:35.281Z,49.20
2018-05-15T04:57:02.744Z,41.87
2018-05-15T04:59:30.217Z,87.47
2018-05-15T05:01:57.692Z,59.55
2018-05-15T05:04:25.183Z,48.77
2018-05-15T05:06:53.408Z,101.40
2018-05-15T05:09:20.875Z,90.83
2018-05-15T05:11:48.387Z,49.87
2018-05-15T05:14:16.606Z,44.67
2018-05-15T05:16:44.072Z,51.40
2018-05-15T05:19:11.541Z,47.07
2018-05-15T05:21:39.009Z,58.37
2018-05-15T05:24:06.458Z,41.23
2018-05-15T05:26:34.684Z,42.90
2018-05-15T05:29:03.635Z,58.27
2018-05-15T05:31:31.097Z,53.90
2018-05-15T05:33:58.554Z,113.83
2018-05-15T05:36:26.027Z,52.80
2018-05-15T05:38:54.246Z,48.97
2018-05-15T05:41:22.471Z,53.80
2018-05-15T06:01:09.285Z,42.78
2018-05-15T06:03:37.507Z,46.23
2018-05-15T06:06:04.963Z,49.90
2018-05-15T06:08:32.426Z,53.17
2018-05-15T06:10:59.885Z,48.23
2018-05-15T06:13:27.333Z,48.70
2018-05-15T06:15:54.796Z,55.80
2018-05-15T06:18:22.249Z,45.27
2018-05-15T06:20:50.550Z,41.03
2018-05-15T06:23:18.691Z,55.85
2018-05-15T06:25:46.156Z,59.22
2018-05-15T06:28:13.593Z,41.92
2018-05-15T06:30:41.056Z,59.83
2018-05-15T06:33:08.516Z,47.07
2018-05-15T06:35:35.978Z,54.13
2018-05-15T06:38:03.430Z,59.78
2018-05-15T06:40:31.660Z,53.60
2018-05-15T06:42:59.878Z,47.47
2018-05-15T06:45:27.495Z,41.30
2018-05-15T06:47:54.964Z,53.03
2018-05-15T06:50:23.187Z,43.63
2018-05-15T06:52:50.642Z,44.17
2018-05-15T06:55:18.100Z,42.05
2018-05-15T06:57:45.561Z,47.43
2018-05-15T07:00:13.017Z,40.80
2018-05-15T07:02:40.474Z,51.37
2018-05-15T07:05:07.949Z,53.75
2018-05-15T07:07:35.437Z,46.08
2018-05-15T07:10:02.901Z,45.08
2018-05-15T07:12:30.359Z,57.17
2018-05-15T07:14:58.591Z,45.55
2018-05-15T07:17:26.830Z,53.67
2018-05-15T07:19:55.059Z,57.10
2018-05-15T07:22:22.538Z,62.03
2018-05-15T07:24:49.995Z,56.88
2018-05-15T07:27:17.525Z,45.08
2018-05-15T07:29:44.933Z,50.40
2018-05-15T07:32:12.391Z,43.60
2018-05-15T07:34:39.852Z,45.33
2018-05-15T07:37:07.304Z,40.03
2018-05-15T07:39:34.751Z,44.33
2018-05-15T07:42:02.969Z,41.25
2018-05-15T07:44:30.469Z,39.63
2018-05-15T07:46:57.880Z,46.88
2018-05-15T07:49:25.324Z,44.67
2018-05-15T08:09:08.623Z,45.92
2018-05-15T08:11:36.084Z,44.53
2018-05-15T08:14:03.527Z,43.10
2018-05-15T08:16:30.993Z,41.65
2018-05-15T08:36:15.838Z,38.83
2018-05-15T08:38:43.311Z,39.28
2018-05-15T08:41:10.755Z,37.92
2018-05-15T08:43:38.213Z,36.85
2018-05-15T08:46:05.675Z,36.20
2018-05-15T08:48:33.135Z,35.38
2018-05-15T08:51:00.597Z,35.20
2018-05-15T08:53:28.067Z,35.65
2018-05-15T08:55:55.523Z,35.90
2018-05-15T08:58:22.987Z,33.53
2018-05-15T09:00:50.453Z,30.37
2018-05-15T09:03:17.913Z,31.15
2018-05-15T09:05:45.349Z,32.20
2018-05-15T09:08:13.571Z,30.70
2018-05-15T09:10:41.016Z,31.60
2018-05-15T09:13:08.481Z,29.50
2018-05-15T09:15:35.916Z,28.35
2018-05-15T09:18:04.134Z,27.27
2018-05-15T09:20:31.600Z,25.00
2018-05-15T09:22:59.068Z,23.77
2018-05-15T09:25:27.288Z,22.70
2018-05-15T09:27:55.503Z,23.60
2018-05-15T09:30:22.967Z,22.48
2018-05-15T09:32:50.428Z,25.20
2018-05-15T09:52:34.108Z,23.30
2018-05-15T09:55:01.563Z,22.90
2018-05-15T09:57:29.019Z,21.35
2018-05-15T09:59:57.244Z,24.80
2018-05-15T10:02:25.452Z,25.58
2018-05-15T10:04:52.929Z,25.00
2018-05-15T10:07:20.376Z,22.83
2018-05-15T10:09:47.852Z,24.75
2018-05-15T10:12:16.080Z,22.77
2018-05-15T10:14:43.550Z,25.55
2018-05-15T10:17:10.992Z,25.40
2018-05-15T10:19:38.442Z,24.70
2018-05-15T10:22:05.904Z,23.62
2018-05-15T10:24:33.368Z,23.52
2018-05-15T10:27:00.844Z,23.10
2018-05-15T10:29:28.308Z,22.87
2018-05-15T10:31:55.766Z,20.02
2018-05-15T10:34:23.232Z,23.15
2018-05-15T10:36:50.693Z,21.73
2018-05-15T10:39:18.153Z,23.17
2018-05-15T10:41:45.616Z,22.92
2018-05-15T10:44:13.078Z,20.15
2018-05-15T10:46:40.526Z,22.67
2018-05-15T10:49:08.744Z,21.20
2018-05-15T10:51:36.216Z,19.20
2018-05-15T10:54:04.464Z,20.00
2018-05-15T10:56:31.925Z,21.37
2018-05-15T10:58:59.415Z,20.35
2018-05-15T11:01:26.865Z,20.05
2018-05-15T11:03:54.373Z,18.50
2018-05-15T11:06:21.825Z,17.90
2018-05-15T11:08:49.299Z,21.62
2018-05-15T11:11:16.776Z,19.90
2018-05-15T11:31:01.468Z,18.60
2018-05-15T11:33:30.418Z,19.23
2018-05-15T11:35:57.956Z,19.15
2018-05-15T11:38:25.366Z,19.48
2018-05-15T11:40:52.804Z,18.92
2018-05-15T11:43:20.271Z,17.77
2018-05-15T11:45:47.736Z,15.18
2018-05-15T11:48:15.570Z,15.32
2018-05-15T11:50:43.659Z,16.62
2018-05-15T11:53:10.898Z,15.73
2018-05-15T11:55:42.711Z,15.00
2018-05-15T11:58:05.048Z,14.68
2018-05-15T12:00:32.515Z,15.07
2018-05-15T12:02:59.975Z,13.60
2018-05-15T12:05:27.429Z,13.93
2018-05-15T12:07:54.896Z,13.77
2018-05-15T12:10:22.343Z,13.32
2018-05-15T12:12:49.892Z,13.18
2018-05-15T12:15:17.289Z,13.43
2018-05-15T12:17:44.750Z,13.93
2018-05-15T12:20:12.221Z,13.45
2018-05-15T12:22:39.676Z,12.05
2018-05-15T12:25:07.128Z,11.48
2018-05-15T12:27:34.590Z,12.85
2018-05-15T12:30:02.059Z,11.30
2018-05-15T12:32:29.515Z,10.00
2018-05-15T12:34:57.031Z,10.63
2018-05-15T12:37:24.488Z,11.12
2018-05-15T12:39:51.962Z,10.57
2018-05-15T12:42:20.185Z,9.70
2018-05-15T12:44:47.643Z,9.80
2018-05-15T12:47:15.081Z,9.73
2018-05-15T12:49:43.284Z,9.45
2018-05-15T12:52:10.747Z,9.07
2018-05-15T12:54:38.214Z,9.68
2018-05-15T12:57:05.671Z,11.12
2018-05-15T12:59:33.117Z,8.73
2018-05-15T13:19:18.102Z,9.63
2018-05-15T13:21:45.563Z,9.77
2018-05-15T13:24:13.004Z,9.80
2018-05-15T13:26:40.453Z,9.95
2018-05-15T13:29:07.900Z,9.25
2018-05-15T13:31:35.362Z,10.77
2018-05-15T13:34:02.818Z,8.88
2018-05-15T13:36:30.263Z,9.60
2018-05-15T13:38:58.490Z,10.13
2018-05-15T13:41:25.953Z,9.25
2018-05-15T13:43:54.159Z,8.52
2018-05-15T13:46:21.621Z,7.25
2018-05-15T13:48:49.058Z,6.40
2018-05-15T13:51:17.323Z,7.00
2018-05-15T13:53:44.836Z,6.37
2018-05-15T13:56:12.300Z,6.12
2018-05-15T13:58:40.313Z,7.20
2018-05-15T14:01:07.781Z,6.75
2018-05-15T14:03:35.220Z,7.00
2018-05-15T14:06:03.443Z,6.82
2018-05-15T14:08:30.894Z,8.30
2018-05-15T14:10:58.352Z,6.82
2018-05-15T14:13:25.805Z,7.10
2018-05-15T14:15:53.244Z,8.95
2018-05-15T14:18:21.493Z,5.93
2018-05-15T14:20:49.220Z,6.15
2018-05-15T14:23:16.681Z,6.22
2018-05-15T14:25:44.140Z,5.78
2018-05-15T14:28:11.605Z,6.65
2018-05-15T14:30:39.117Z,5.32
2018-05-15T14:33:07.039Z,5.53
2018-05-15T14:35:34.731Z,7.65
2018-05-15T14:38:02.219Z,6.45
2018-05-15T14:40:29.734Z,5.43
2018-05-15T14:45:55.935Z,5.78
2018-05-15T14:48:23.424Z,5.70
2018-05-15T14:54:05.732Z,6.20
2018-05-15T14:56:33.180Z,6.43
2018-05-15T14:59:01.413Z,7.37
2018-05-15T15:01:28.861Z,6.05
2018-05-15T15:03:56.341Z,5.68
2018-05-15T15:06:23.789Z,6.12
2018-05-15T15:08:51.258Z,6.18
2018-05-15T15:11:18.737Z,5.75
2018-05-15T15:13:46.222Z,5.35
2018-05-15T15:16:14.430Z,6.07
2018-05-15T15:18:41.954Z,5.32
2018-05-15T15:21:09.401Z,5.00
2018-05-15T15:23:36.883Z,5.05
2018-05-15T15:26:04.299Z,5.45
2018-05-15T15:28:31.787Z,4.70
2018-05-15T15:30:59.228Z,4.65
2018-05-15T15:33:26.688Z,5.40
2018-05-15T15:35:54.157Z,5.15
2018-05-15T15:38:21.610Z,5.00
2018-05-15T15:40:49.064Z,6.68
2018-05-15T15:43:16.541Z,4.80
2018-05-15T15:45:43.985Z,5.03
2018-05-15T15:48:11.448Z,8.27
2018-05-15T15:50:38.910Z,5.12
2018-05-15T15:53:06.376Z,5.12
2018-05-15T15:55:33.812Z,5.37
2018-05-15T15:58:02.138Z,5.22
2018-05-15T16:00:29.525Z,7.50
2018-05-15T16:02:56.984Z,5.60
2018-05-15T16:05:24.428Z,7.90
2018-05-15T16:07:51.889Z,4.68
2018-05-15T16:10:19.352Z,4.97
2018-05-15T16:12:46.822Z,4.55
2018-05-15T16:15:14.264Z,4.55
2018-05-15T16:17:41.712Z,5.07
2018-05-15T16:20:09.209Z,4.47
2018-05-15T16:22:36.622Z,4.78
2018-05-15T16:25:04.832Z,6.40
2018-05-15T16:27:32.274Z,4.57
2018-05-15T16:29:59.729Z,4.18
2018-05-15T16:32:27.172Z,5.22
2018-05-15T16:34:55.395Z,4.87
2018-05-15T16:37:22.844Z,5.82
2018-05-15T16:39:50.291Z,4.90
2018-05-15T16:42:17.759Z,4.80
2018-05-15T16:44:45.237Z,4.37
2018-05-15T16:47:12.734Z,4.00
2018-05-15T16:49:40.196Z,4.20
2018-05-15T16:52:07.647Z,4.03
2018-05-15T16:54:35.097Z,3.90
2018-05-15T16:57:02.553Z,4.00
2018-05-15T16:59:30.016Z,3.78
2018-05-15T17:01:57.445Z,3.92
2018-05-15T17:04:25.671Z,3.60
2018-05-15T17:06:53.110Z,4.80
2018-05-15T17:09:20.675Z,4.37
2018-05-15T17:11:48.092Z,4.65
2018-05-15T17:14:15.549Z,4.57
2018-05-15T17:16:42.972Z,4.37
2018-05-15T17:19:10.428Z,5.47
2018-05-15T17:21:37.869Z,4.75
2018-05-15T17:24:06.089Z,3.95
2018-05-15T17:26:33.531Z,6.40
2018-05-15T17:29:00.989Z,4.40
2018-05-15T17:31:28.508Z,4.57
2018-05-15T17:33:55.914Z,4.60
2018-05-15T17:36:23.364Z,5.97
2018-05-15T17:38:50.860Z,5.25
2018-05-15T17:41:18.279Z,4.40
2018-05-15T17:43:46.488Z,5.45
2018-05-15T17:46:13.952Z,4.55
2018-05-15T17:48:41.406Z,4.43
2018-05-15T17:51:08.869Z,5.18
2018-05-15T18:26:45.857Z,4.00
2018-05-15T18:29:13.306Z,5.18
2018-05-15T18:31:40.749Z,6.15
2018-05-15T18:34:08.194Z,3.78
2018-05-15T18:36:35.645Z,4.37
2018-05-15T18:39:03.099Z,3.90
2018-05-15T18:41:30.546Z,4.47
2018-05-15T18:43:58.769Z,4.15
2018-05-15T18:46:26.228Z,4.70
2018-05-15T18:48:53.679Z,3.78
2018-05-15T18:51:21.141Z,3.97
2018-05-15T18:53:48.647Z,4.45
2018-05-15T18:56:16.114Z,4.37
2018-05-15T18:58:43.543Z,4.03
2018-05-15T19:01:10.995Z,5.47
2018-05-15T19:03:38.434Z,5.10
2018-05-15T19:06:05.913Z,4.85
2018-05-15T19:08:33.382Z,5.43
2018-05-15T19:11:00.843Z,4.60
2018-05-15T19:13:28.298Z,4.68
2018-05-15T19:15:55.737Z,4.78
2018-05-15T19:18:23.947Z,6.15
2018-05-15T19:20:51.397Z,6.30
2018-05-15T19:23:18.859Z,4.37
2018-05-15T19:25:46.321Z,4.47
2018-05-15T19:28:13.763Z,4.60
2018-05-15T19:30:41.983Z,4.15
2018-05-15T19:33:09.422Z,4.62
2018-05-15T19:35:40.813Z,4.95
2018-05-15T19:38:08.265Z,4.87
2018-05-15T19:40:41.586Z,5.22
2018-05-15T19:43:09.043Z,4.80
2018-05-15T19:45:36.500Z,5.62
2018-05-15T19:48:03.962Z,4.18
2018-05-15T19:50:31.425Z,4.32
2018-05-15T19:52:58.864Z,5.60
2018-05-15T19:55:26.349Z,4.65
2018-05-15T19:57:53.779Z,3.97
2018-05-15T20:00:21.231Z,3.87
2018-05-15T20:02:48.692Z,4.00
2018-05-15T20:05:16.133Z,4.07
2018-05-15T20:07:44.359Z,4.28
2018-05-15T20:10:11.801Z,4.60
2018-05-15T20:12:39.269Z,4.18
2018-05-15T20:15:06.711Z,4.03
2018-05-15T20:17:34.184Z,4.20
2018-05-15T20:20:01.637Z,4.72
2018-05-15T20:22:29.858Z,4.60
2018-05-15T20:24:57.296Z,4.25
2018-05-15T20:27:24.756Z,4.00
2018-05-15T20:29:52.203Z,4.25
2018-05-15T20:32:19.649Z,4.55
2018-05-15T20:34:47.917Z,5.68
2018-05-15T20:37:15.325Z,4.97
2018-05-15T20:39:42.760Z,4.80
2018-05-15T20:42:11.056Z,4.60
2018-05-15T20:44:38.428Z,4.80
2018-05-15T20:47:05.885Z,4.50
2018-05-15T20:49:33.343Z,5.12
2018-05-15T20:52:00.802Z,5.80
2018-05-15T20:54:28.240Z,5.45
2018-05-15T20:56:56.469Z,8.27
2018-05-15T20:59:23.928Z,5.70
2018-05-15T21:01:51.362Z,6.40
2018-05-15T21:04:18.804Z,6.62
2018-05-15T21:06:46.262Z,6.75
2018-05-15T21:09:13.705Z,10.73
2018-05-15T21:11:41.169Z,9.15
2018-05-15T21:14:08.615Z,7.25
2018-05-15T21:16:36.067Z,7.85
2018-05-15T21:19:03.513Z,7.57
2018-05-15T21:21:30.977Z,7.07
2018-05-15T21:23:58.429Z,6.32
2018-05-15T21:26:25.876Z,6.87
2018-05-15T21:28:54.105Z,7.03
2018-05-15T21:31:21.572Z,6.82
2018-05-15T21:33:49.033Z,6.68
2018-05-15T21:36:16.476Z,7.15
2018-05-15T21:38:43.929Z,6.53
2018-05-15T21:41:11.382Z,7.62
2018-05-15T21:43:38.833Z,6.00
2018-05-15T21:46:07.045Z,5.90
2018-05-15T21:48:34.506Z,5.97
2018-05-15T21:51:01.966Z,6.55
2018-05-15T21:53:29.420Z,6.20
2018-05-15T21:55:56.868Z,5.82
2018-05-15T21:58:24.320Z,6.22
2018-05-15T22:00:51.862Z,6.05
2018-05-15T22:03:19.320Z,5.47
2018-05-15T22:05:46.783Z,5.15
2018-05-15T22:08:14.231Z,6.10
2018-05-15T22:10:41.675Z,5.53
2018-05-15T22:13:20.834Z,4.55
2018-05-15T22:16:00.194Z,6.15
2018-05-15T22:18:40.434Z,4.62
2018-05-15T22:21:19.680Z,5.53
2018-05-15T22:23:47.404Z,4.95
2018-05-15T22:26:14.848Z,4.60
2018-05-15T22:28:42.301Z,4.62
2018-05-15T22:31:09.761Z,5.00
2018-05-15T22:33:37.228Z,6.50
2018-05-15T22:36:04.697Z,4.80
2018-05-15T22:38:32.150Z,4.70
2018-05-15T22:40:59.608Z,5.00
2018-05-15T22:43:27.052Z,4.97
2018-05-15T22:45:55.272Z,4.18
2018-05-15T22:48:22.724Z,5.15
2018-05-15T22:50:50.165Z,5.22
2018-05-15T22:53:17.616Z,5.40
2018-05-15T22:55:45.841Z,5.22
2018-05-15T22:58:13.294Z,4.90
2018-05-15T23:00:40.739Z,5.45
2018-05-15T23:03:08.200Z,5.90
2018-05-15T23:05:35.664Z,5.95
2018-05-15T23:08:03.100Z,5.97
2018-05-15T23:10:31.332Z,5.82
2018-05-15T23:12:59.538Z,5.93
2018-05-15T23:15:26.983Z,6.30
2018-05-15T23:17:54.430Z,6.00
2018-05-15T23:20:21.892Z,5.93
2018-05-15T23:22:49.341Z,5.85
2018-05-15T23:25:16.821Z,5.78
2018-05-15T23:27:44.264Z,5.62
2018-05-15T23:30:11.721Z,6.55
2018-05-15T23:32:39.923Z,5.93
2018-05-15T23:35:07.384Z,5.60
2018-05-15T23:37:34.827Z,5.57
2018-05-15T23:40:02.278Z,5.22
2018-05-15T23:42:30.487Z,5.55
2018-05-15T23:44:57.939Z,5.12
2018-05-15T23:47:25.394Z,5.55
2018-05-15T23:49:52.867Z,5.40
2018-05-15T23:52:20.321Z,5.47
2018-05-15T23:54:47.781Z,5.20
2018-05-15T23:57:15.217Z,7.93
2018-05-15T23:59:42.679Z,5.82
